Time;durP1;ratioP1;P1;durP2;ratioP2;P2;SDS_P1;SDS_P2;PMS_P1;PMS_P2;Temp;Humidity;BMP_temperature;BMP_pressure;BME280_temperature;BME280_humidity;BME280_pressure;Samples;Min_cycle;Max_cycle;Signal;HPM_P1;HPM_P2
2023/10/25 00:00:39;;;;;;;;;;;;;;;10.36;100.00;94691.13;10494067;28;2776;-71
2023/10/25 00:05:42;;;;;;;;;;;;;;;10.33;100.00;94679.09;10493500;28;2598;-70
2023/10/25 00:10:45;;;;;;;;;;;;;;;10.32;100.00;94684.78;10504970;28;2628;-71
2023/10/25 00:15:49;;;;;;;;;;;;;;;10.32;100.00;94693.63;10510202;28;2670;-71
2023/10/25 00:20:54;;;;;;;;;;;;;;;10.28;100.00;94704.16;10526070;28;2597;-70
2023/10/25 00:25:58;;;;;;;;;;;;;;;10.22;100.00;94705.31;10513696;28;2635;-71
2023/10/25 00:31:02;;;;;;;;;;;;;;;10.20;100.00;94698.66;10494226;28;2667;-70
2023/10/25 00:36:06;;;;;;;;;;;;;;;10.19;100.00;94705.91;10518839;28;2529;-70
2023/10/25 00:41:11;;;;;;;;;;;;;;;10.09;100.00;94711.47;10528570;27;2583;-72
2023/10/25 00:46:15;;;;;;;;;;;;;;;10.07;100.00;94712.88;10521411;28;2630;-69
2023/10/25 00:51:19;;;;;;;;;;;;;;;10.01;100.00;94725.56;10514113;28;5303;-71
2023/10/25 00:56:22;;;;;;;;;;;;;;;9.95;100.00;94732.91;10507811;28;2611;-70
2023/10/25 01:01:28;;;;;;;;;;;;;;;9.80;100.00;94727.81;10501191;28;3126;-71
2023/10/25 01:06:33;;;;;;;;;;;;;;;9.74;100.00;94726.31;10512802;28;2812;-73
2023/10/25 01:11:37;;;;;;;;;;;;;;;9.67;100.00;94723.19;10512410;28;2640;-71
2023/10/25 01:16:41;;;;;;;;;;;;;;;9.64;100.00;94721.88;10513840;28;2730;-70
2023/10/25 01:21:47;;;;;;;;;;;;;;;9.61;100.00;94717.13;10492369;28;2637;-70
2023/10/25 01:26:51;;;;;;;;;;;;;;;9.57;100.00;94723.34;10515946;28;2656;-71
2023/10/25 01:31:56;;;;;;;;;;;;;;;9.48;100.00;94707.13;10518354;28;2786;-70
2023/10/25 01:36:59;;;;;;;;;;;;;;;9.46;100.00;94711.97;10510424;28;2561;-70
2023/10/25 01:42:03;;;;;;;;;;;;;;;9.47;100.00;94700.94;10509431;28;2587;-71
2023/10/25 01:47:06;;;;;;;;;;;;;;;9.37;100.00;94703.81;10532628;27;2661;-71
2023/10/25 01:52:10;;;;;;;;;;;;;;;9.42;100.00;94697.56;10511311;28;5154;-71
2023/10/25 01:57:15;;;;;;;;;;;;;;;9.36;100.00;94698.75;10494217;28;2636;-71
2023/10/25 02:02:22;;;;;;;;;;;;;;;9.40;100.00;94694.38;10493253;28;2838;-71
2023/10/25 02:07:26;;;;;;;;;;;;;;;9.46;100.00;94682.47;10507113;28;2912;-70
2023/10/25 02:12:29;;;;;;;;;;;;;;;9.47;100.00;94679.50;10519286;28;2629;-70
2023/10/25 02:17:31;;;;;;;;;;;;;;;9.47;100.00;94676.00;10513060;28;2846;-71
2023/10/25 02:22:36;;;;;;;;;;;;;;;9.37;100.00;94663.56;10523798;28;2621;-73
2023/10/25 02:27:39;;;;;;;;;;;;;;;9.34;100.00;94666.81;10517521;28;2587;-71
2023/10/25 02:32:42;;;;;;;;;;;;;;;9.20;100.00;94680.19;10511874;28;2852;-73
2023/10/25 02:37:45;;;;;;;;;;;;;;;9.13;100.00;94662.88;10529287;28;2799;-70
2023/10/25 02:42:50;;;;;;;;;;;;;;;9.03;100.00;94679.09;10522196;28;2632;-70
2023/10/25 02:47:53;;;;;;;;;;;;;;;9.08;100.00;94693.22;10531320;27;5167;-70
2023/10/25 02:52:56;;;;;;;;;;;;;;;9.04;100.00;94678.81;10519738;28;2837;-70
2023/10/25 02:57:59;;;;;;;;;;;;;;;9.04;100.00;94678.81;10519190;28;2582;-71
2023/10/25 03:03:03;;;;;;;;;;;;;;;8.92;100.00;94681.94;10534354;28;2562;-70
2023/10/25 03:08:07;;;;;;;;;;;;;;;8.84;100.00;94689.81;10519584;28;2580;-70
2023/10/25 03:13:09;;;;;;;;;;;;;;;8.78;100.00;94683.75;10535576;28;2702;-70
2023/10/25 03:18:13;;;;;;;;;;;;;;;8.76;100.00;94679.75;10511891;28;2568;-72
2023/10/25 03:23:20;;;;;;;;;;;;;;;8.71;100.00;94688.63;10516475;28;2553;-69
2023/10/25 03:28:25;;;;;;;;;;;;;;;8.84;100.00;94687.13;10513604;28;2884;-72
2023/10/25 03:33:30;;;;;;;;;;;;;;;8.87;100.00;94679.31;10518672;28;2601;-72
2023/10/25 03:38:37;;;;;;;;;;;;;;;8.94;100.00;94684.31;10526625;28;2862;-75
2023/10/25 03:43:40;;;;;;;;;;;;;;;8.91;100.00;94684.91;10495730;28;2524;-70
2023/10/25 03:48:43;;;;;;;;;;;;;;;8.88;100.00;94691.63;10513709;28;5432;-70
2023/10/25 03:53:47;;;;;;;;;;;;;;;8.88;100.00;94674.75;10512980;28;2832;-69
2023/10/25 03:58:53;;;;;;;;;;;;;;;8.92;100.00;94676.56;10514113;28;2608;-69
2023/10/25 04:03:59;;;;;;;;;;;;;;;8.96;100.00;94666.06;10525397;28;2575;-71
2023/10/25 04:09:02;;;;;;;;;;;;;;;9.00;100.00;94666.28;10493587;28;2830;-73
2023/10/25 04:14:06;;;;;;;;;;;;;;;8.93;100.00;94655.94;10513278;28;2745;-72
2023/10/25 04:19:09;;;;;;;;;;;;;;;8.85;100.00;94664.63;10512440;28;2978;-71
2023/10/25 04:24:12;;;;;;;;;;;;;;;8.75;100.00;94662.88;10505293;28;2882;-69
2023/10/25 04:29:15;;;;;;;;;;;;;;;8.63;100.00;94655.25;10500801;28;2599;-75
2023/10/25 04:34:18;;;;;;;;;;;;;;;8.53;100.00;94654.63;10508879;28;2588;-72
2023/10/25 04:39:22;;;;;;;;;;;;;;;8.49;100.00;94648.22;10517892;28;2532;-73
2023/10/25 04:44:25;;;;;;;;;;;;;;;8.47;100.00;94629.78;10495565;28;2859;-71
2023/10/25 04:49:31;;;;;;;;;;;;;;;8.51;100.00;94630.78;10515244;28;5512;-70
2023/10/25 04:54:35;;;;;;;;;;;;;;;8.50;100.00;94634.53;10514023;28;2739;-69
2023/10/25 04:59:47;;;;;;;;;;;;;;;8.44;100.00;94643.72;10519672;28;2613;-72
2023/10/25 05:04:51;;;;;;;;;;;;;;;8.34;100.00;94633.91;10508581;28;2866;-70
2023/10/25 05:09:54;;;;;;;;;;;;;;;8.37;100.00;94629.88;10516680;28;2573;-72
2023/10/25 05:14:59;;;;;;;;;;;;;;;8.30;100.00;94624.06;10497793;28;2534;-73
2023/10/25 05:20:04;;;;;;;;;;;;;;;8.29;100.00;94623.25;10512189;28;2883;-75
2023/10/25 05:25:09;;;;;;;;;;;;;;;8.29;100.00;94617.91;10511207;28;2618;-70
2023/10/25 05:30:12;;;;;;;;;;;;;;;8.30;100.00;94619.50;10493008;28;2627;-71
2023/10/25 05:35:21;;;;;;;;;;;;;;;8.37;100.00;94609.25;10490257;28;2630;-71
2023/10/25 05:40:24;;;;;;;;;;;;;;;8.39;100.00;94606.28;10490294;28;2839;-71
2023/10/25 05:45:32;;;;;;;;;;;;;;;8.37;100.00;94611.94;10504854;28;2787;-70
2023/10/25 05:50:43;;;;;;;;;;;;;;;8.27;100.00;94603.19;10504305;28;6062;-75
2023/10/25 05:55:47;;;;;;;;;;;;;;;8.19;100.00;94603.84;10510436;28;2553;-73
2023/10/25 06:00:57;;;;;;;;;;;;;;;8.22;100.00;94597.94;10494732;28;2595;-71
2023/10/25 06:06:02;;;;;;;;;;;;;;;8.32;100.00;94603.13;10509337;28;2633;-72
2023/10/25 06:11:07;;;;;;;;;;;;;;;8.39;100.00;94607.09;10505018;28;2587;-73
2023/10/25 06:16:13;;;;;;;;;;;;;;;8.45;100.00;94591.75;10500210;28;2698;-71
2023/10/25 06:21:17;;;;;;;;;;;;;;;8.48;100.00;94604.56;10512896;28;2644;-69
2023/10/25 06:26:20;;;;;;;;;;;;;;;8.41;100.00;94593.44;10523088;28;2675;-70
2023/10/25 06:31:23;;;;;;;;;;;;;;;8.39;100.00;94595.56;10510433;28;1964;-71
2023/10/25 06:36:30;;;;;;;;;;;;;;;8.44;100.00;94576.78;10545582;28;2980;-69
2023/10/25 06:41:39;;;;;;;;;;;;;;;8.43;100.00;94571.72;10540251;28;2085;-69
2023/10/25 06:46:43;;;;;;;;;;;;;;;8.43;100.00;94585.09;10536391;28;1906;-70
2023/10/25 06:51:47;;;;;;;;;;;;;;;8.59;100.00;94587.28;10513707;28;5240;-69
2023/10/25 06:56:50;;;;;;;;;;;;;;;8.88;100.00;94586.31;10521832;28;1597;-71
2023/10/25 07:01:54;;;;;;;;;;;;;;;9.05;100.00;94581.22;10528155;28;1748;-70
2023/10/25 07:07:01;;;;;;;;;;;;;;;9.07;100.00;94572.88;10530223;28;1984;-70
2023/10/25 07:12:04;;;;;;;;;;;;;;;9.14;100.00;94568.75;10523898;28;1559;-69
2023/10/25 07:17:10;;;;;;;;;;;;;;;9.15;100.00;94564.97;10504675;28;2835;-69
2023/10/25 07:22:15;;;;;;;;;;;;;;;9.19;100.00;94560.63;10509896;28;2128;-70
2023/10/25 07:27:19;;;;;;;;;;;;;;;9.24;100.00;94557.06;10512071;28;1918;-71
2023/10/25 07:32:26;;;;;;;;;;;;;;;9.29;100.00;94553.47;10495771;28;1577;-69
2023/10/25 07:37:30;;;;;;;;;;;;;;;9.27;100.00;94545.72;10522363;28;1530;-71
2023/10/25 07:42:34;;;;;;;;;;;;;;;9.38;100.00;94539.09;10508369;28;1626;-70
2023/10/25 07:47:38;;;;;;;;;;;;;;;9.51;100.00;94545.59;10507619;28;5340;-69
2023/10/25 07:52:41;;;;;;;;;;;;;;;9.63;100.00;94535.16;10530586;28;1323;-70
2023/10/25 07:57:44;;;;;;;;;;;;;;;9.82;100.00;94542.31;10528167;28;1342;-69
2023/10/25 08:02:51;;;;;;;;;;;;;;;10.03;100.00;94541.59;10529509;28;2970;-69
2023/10/25 08:07:58;;;;;;;;;;;;;;;10.18;100.00;94531.63;10524172;28;1913;-72
2023/10/25 08:13:02;;;;;;;;;;;;;;;10.26;100.00;94518.34;10509930;28;1557;-74
2023/10/25 08:18:06;;;;;;;;;;;;;;;10.32;100.00;94510.19;10509256;28;1571;-69
2023/10/25 08:23:11;;;;;;;;;;;;;;;10.38;100.00;94503.59;10511470;28;1465;-70
2023/10/25 08:28:14;;;;;;;;;;;;;;;10.54;100.00;94499.47;10543304;28;2660;-70
2023/10/25 08:33:18;;;;;;;;;;;;;;;10.66;100.00;94509.66;10521364;28;1750;-71
2023/10/25 08:38:23;;;;;;;;;;;;;;;10.70;100.00;94499.91;10508362;28;1565;-70
2023/10/25 08:43:27;;;;;;;;;;;;;;;10.82;100.00;94494.78;10541275;27;1468;-70
2023/10/25 08:48:32;;;;;;;;;;;;;;;10.90;100.00;94491.34;10503447;28;2918;-70
2023/10/25 08:53:36;;;;;;;;;;;;;;;11.12;100.00;94484.34;10527071;28;1438;-69
2023/10/25 08:58:41;;;;;;;;;;;;;;;11.20;100.00;94470.19;10522863;28;1675;-70
2023/10/25 09:03:47;;;;;;;;;;;;;;;11.26;100.00;94469.75;10527959;28;1533;-75
2023/10/25 09:08:51;;;;;;;;;;;;;;;11.31;100.00;94455.34;10531307;28;1973;-74
2023/10/25 09:13:54;;;;;;;;;;;;;;;11.44;100.00;94442.88;10474860;28;1511;-75
2023/10/25 09:18:58;;;;;;;;;;;;;;;11.61;100.00;94435.66;10518128;28;1776;-71
2023/10/25 09:24:02;;;;;;;;;;;;;;;11.70;100.00;94419.53;10506839;28;1494;-72
2023/10/25 09:29:08;;;;;;;;;;;;;;;11.88;100.00;94434.66;10498469;28;1973;-70
2023/10/25 09:34:12;;;;;;;;;;;;;;;11.96;100.00;94416.13;10518616;28;2814;-70
2023/10/25 09:39:15;;;;;;;;;;;;;;;12.04;100.00;94408.06;10539524;28;1450;-69
2023/10/25 09:44:20;;;;;;;;;;;;;;;12.21;100.00;94401.88;10510038;28;1501;-70
2023/10/25 09:49:26;;;;;;;;;;;;;;;12.50;100.00;94397.78;10510425;28;5136;-68
2023/10/25 09:54:30;;;;;;;;;;;;;;;12.56;100.00;94391.09;10537609;28;1501;-69
2023/10/25 09:59:36;;;;;;;;;;;;;;;12.81;100.00;94387.56;10519254;28;1721;-69
2023/10/25 10:04:44;;;;;;;;;;;;;;;12.95;100.00;94379.28;10528765;28;1674;-71
2023/10/25 10:09:47;;;;;;;;;;;;;;;12.93;100.00;94374.22;10499162;28;1918;-70
2023/10/25 10:14:54;;;;;;;;;;;;;;;12.99;100.00;94381.03;10534181;28;2965;-69
2023/10/25 10:20:00;;;;;;;;;;;;;;;13.07;100.00;94379.41;10517140;28;1605;-72
2023/10/25 10:25:05;;;;;;;;;;;;;;;13.10;100.00;94383.34;10529919;28;1534;-68
2023/10/25 10:30:10;;;;;;;;;;;;;;;13.25;100.00;94364.75;10514463;28;1984;-70
2023/10/25 10:35:16;;;;;;;;;;;;;;;13.42;100.00;94349.59;10531613;28;1422;-70
2023/10/25 10:40:20;;;;;;;;;;;;;;;13.57;100.00;94338.25;10538624;28;1441;-70
2023/10/25 10:45:30;;;;;;;;;;;;;;;13.64;100.00;94333.09;10528813;28;1729;-70
2023/10/25 10:50:35;;;;;;;;;;;;;;;13.78;100.00;94324.75;10533347;28;5156;-69
2023/10/25 10:55:40;;;;;;;;;;;;;;;13.85;100.00;94322.31;10520419;28;1899;-71
2023/10/25 11:00:44;;;;;;;;;;;;;;;13.84;100.00;94299.13;10519922;28;2773;-70
2023/10/25 11:05:49;;;;;;;;;;;;;;;13.94;100.00;94303.34;10529761;28;1654;-69
2023/10/25 11:10:52;;;;;;;;;;;;;;;14.01;100.00;94287.41;10503857;28;1918;-74
2023/10/25 11:15:55;;;;;;;;;;;;;;;13.94;100.00;94282.53;10501209;28;1435;-71
2023/10/25 11:20:59;;;;;;;;;;;;;;;13.99;100.00;94263.41;10529713;28;2729;-74
2023/10/25 11:26:02;;;;;;;;;;;;;;;13.90;100.00;94243.00;10515107;28;1881;-72
2023/10/25 11:31:07;;;;;;;;;;;;;;;14.10;100.00;94227.88;10543874;27;1906;-73
2023/10/25 11:36:11;;;;;;;;;;;;;;;14.39;100.00;94216.94;10527090;28;1757;-75
2023/10/25 11:41:17;;;;;;;;;;;;;;;15.26;100.00;94215.84;10531176;28;1513;-71
2023/10/25 11:46:23;;;;;;;;;;;;;;;15.39;100.00;94220.88;10510657;28;1605;-70
2023/10/25 11:51:27;;;;;;;;;;;;;;;15.38;100.00;94196.88;10527184;28;2593;-70
2023/10/25 11:56:31;;;;;;;;;;;;;;;15.16;100.00;94200.06;10529679;28;1768;-70
2023/10/25 12:01:34;;;;;;;;;;;;;;;15.08;100.00;94183.63;10522222;28;2568;-70
2023/10/25 12:06:40;;;;;;;;;;;;;;;15.11;100.00;94174.81;10523484;28;1909;-72
2023/10/25 12:11:45;;;;;;;;;;;;;;;15.31;100.00;94169.59;10514446;28;2766;-71
2023/10/25 12:16:50;;;;;;;;;;;;;;;15.26;100.00;94150.88;10543297;27;2538;-71
2023/10/25 12:21:56;;;;;;;;;;;;;;;15.53;100.00;94139.31;10512463;28;1839;-68
2023/10/25 12:26:59;;;;;;;;;;;;;;;15.81;100.00;94125.75;10523361;28;2565;-71
2023/10/25 12:32:03;;;;;;;;;;;;;;;15.90;100.00;94114.75;10505897;28;1779;-69
2023/10/25 12:37:08;;;;;;;;;;;;;;;16.00;100.00;94108.06;10527155;28;2429;-69
2023/10/25 12:42:14;;;;;;;;;;;;;;;16.45;100.00;94092.16;10509778;28;1848;-70
2023/10/25 12:47:22;;;;;;;;;;;;;;;16.40;100.00;94088.91;10504421;28;2857;-70
2023/10/25 12:52:25;;;;;;;;;;;;;;;16.16;100.00;94074.41;10513813;28;5260;-72
2023/10/25 12:57:35;;;;;;;;;;;;;;;15.97;100.00;94070.78;10538795;27;1805;-70
2023/10/25 13:02:38;;;;;;;;;;;;;;;16.04;100.00;94066.38;10488064;28;1592;-71
2023/10/25 13:07:44;;;;;;;;;;;;;;;16.11;100.00;94055.69;10527889;28;1979;-71
2023/10/25 13:12:47;;;;;;;;;;;;;;;16.27;100.00;94049.47;10523639;28;1716;-71
2023/10/25 13:17:51;;;;;;;;;;;;;;;16.38;100.00;94037.75;10521100;28;1994;-75
2023/10/25 13:22:58;;;;;;;;;;;;;;;16.24;100.00;94032.00;10504689;28;1984;-69
2023/10/25 13:28:02;;;;;;;;;;;;;;;15.89;100.00;94026.47;10508802;28;2562;-71
2023/10/25 13:33:07;;;;;;;;;;;;;;;15.65;100.00;94017.41;10525719;28;1876;-73
2023/10/25 13:38:11;;;;;;;;;;;;;;;15.52;100.00;94010.41;10545487;28;1539;-73
2023/10/25 13:43:18;;;;;;;;;;;;;;;15.52;100.00;93996.88;10540496;28;1725;-70
2023/10/25 13:48:22;;;;;;;;;;;;;;;15.46;100.00;93986.66;10523610;28;1990;-70
2023/10/25 13:53:25;;;;;;;;;;;;;;;15.57;100.00;93983.09;10541042;28;1583;-71
2023/10/25 13:58:32;;;;;;;;;;;;;;;15.51;100.00;93992.59;10508729;28;1658;-70
2023/10/25 14:03:36;;;;;;;;;;;;;;;15.33;100.00;93988.66;10510780;28;1633;-70
2023/10/25 14:08:40;;;;;;;;;;;;;;;15.22;100.00;93968.66;10545593;28;1975;-74
2023/10/25 14:13:45;;;;;;;;;;;;;;;15.22;100.00;93971.34;10509261;28;2552;-70
2023/10/25 14:18:54;;;;;;;;;;;;;;;15.37;100.00;93955.13;10525954;28;1469;-72
2023/10/25 14:24:01;;;;;;;;;;;;;;;15.60;100.00;93951.84;10508933;28;1565;-70
2023/10/25 14:29:04;;;;;;;;;;;;;;;15.78;100.00;93950.38;10539962;28;2593;-71
2023/10/25 14:34:11;;;;;;;;;;;;;;;16.15;100.00;93937.28;10524021;28;1731;-74
2023/10/25 14:39:15;;;;;;;;;;;;;;;16.25;100.00;93929.75;10509710;28;2500;-75
2023/10/25 14:44:18;;;;;;;;;;;;;;;16.12;100.00;93937.22;10527605;28;1744;-77
2023/10/25 14:49:23;;;;;;;;;;;;;;;15.67;100.00;93944.69;10514237;28;1983;-73
2023/10/25 14:54:26;;;;;;;;;;;;;;;15.48;100.00;93941.88;10547981;27;1763;-70
2023/10/25 14:59:30;;;;;;;;;;;;;;;15.51;100.00;93943.09;10541107;28;2645;-71
2023/10/25 15:04:37;;;;;;;;;;;;;;;15.54;100.00;93950.53;10511173;28;1730;-69
2023/10/25 15:09:43;;;;;;;;;;;;;;;15.33;100.00;93945.34;10544030;27;1901;-71
2023/10/25 15:15:08;;;;;;;;;;;;;;;15.18;100.00;93943.41;10527082;28;1807;-70
2023/10/25 15:20:15;;;;;;;;;;;;;;;15.18;100.00;93932.56;10513828;28;1896;-71
2023/10/25 15:25:23;;;;;;;;;;;;;;;15.07;100.00;93924.94;10525608;28;1579;-71
2023/10/25 15:30:28;;;;;;;;;;;;;;;15.12;100.00;93919.28;10529373;28;1923;-72
2023/10/25 15:35:34;;;;;;;;;;;;;;;14.96;100.00;93907.66;10513065;28;1482;-71
2023/10/25 15:40:38;;;;;;;;;;;;;;;14.69;100.00;93944.41;10541008;28;1441;-71
2023/10/25 15:45:42;;;;;;;;;;;;;;;14.65;100.00;93961.66;10541925;28;1477;-70
2023/10/25 15:50:44;;;;;;;;;;;;;;;14.50;100.00;93977.47;10526863;28;2417;-71
2023/10/25 15:55:49;;;;;;;;;;;;;;;14.41;100.00;93979.50;10505943;28;2562;-71
2023/10/25 16:00:55;;;;;;;;;;;;;;;14.29;100.00;93990.31;10519524;28;2557;-73
2023/10/25 16:06:02;;;;;;;;;;;;;;;14.26;100.00;93989.09;10542277;28;1810;-71
2023/10/25 16:11:05;;;;;;;;;;;;;;;14.27;100.00;93992.59;10540352;27;1925;-71
2023/10/25 16:16:10;;;;;;;;;;;;;;;14.30;100.00;93997.28;10540536;27;2126;-70
2023/10/25 16:21:13;;;;;;;;;;;;;;;14.33;100.00;93993.94;10526121;28;2418;-76
2023/10/25 16:26:18;;;;;;;;;;;;;;;14.43;100.00;93996.16;10512029;28;1847;-70
2023/10/25 16:31:22;;;;;;;;;;;;;;;14.31;100.00;93993.47;10522808;28;1909;-70
2023/10/25 16:36:25;;;;;;;;;;;;;;;14.16;100.00;93994.94;10503441;28;1626;-71
2023/10/25 16:41:28;;;;;;;;;;;;;;;13.98;100.00;93997.09;10526730;28;1913;-72
2023/10/25 16:46:36;;;;;;;;;;;;;;;13.92;100.00;94006.53;10524897;28;1496;-72
2023/10/25 16:51:47;;;;;;;;;;;;;;;13.76;100.00;94011.03;10535957;28;5147;-71
2023/10/25 16:56:52;;;;;;;;;;;;;;;13.72;100.00;94015.53;10522857;28;2878;-72
2023/10/25 17:01:56;;;;;;;;;;;;;;;13.62;100.00;93999.78;10503235;28;1618;-71
2023/10/25 17:07:02;;;;;;;;;;;;;;;13.24;100.00;94003.53;10540762;28;1472;-71
2023/10/25 17:12:06;;;;;;;;;;;;;;;12.90;100.00;94008.06;10510711;28;1971;-75
2023/10/25 17:17:10;;;;;;;;;;;;;;;12.61;100.00;94000.88;10512733;28;2390;-70
2023/10/25 17:22:15;;;;;;;;;;;;;;;12.66;100.00;94024.94;10524055;28;1634;-74
2023/10/25 17:27:23;;;;;;;;;;;;;;;12.61;100.00;94027.81;10520319;28;1548;-73
2023/10/25 17:32:30;;;;;;;;;;;;;;;12.55;100.00;94012.97;10526032;28;1914;-72
2023/10/25 17:37:34;;;;;;;;;;;;;;;12.59;100.00;94007.69;10521846;28;1508;-71
2023/10/25 17:42:40;;;;;;;;;;;;;;;12.18;100.00;93976.94;10531067;28;2819;-70
2023/10/25 17:47:53;;;;;;;;;;;;;;;11.77;100.00;93986.47;10522281;28;5124;-75
2023/10/25 17:53:03;;;;;;;;;;;;;;;11.60;100.00;93983.84;10523358;28;1704;-74
2023/10/25 17:58:09;;;;;;;;;;;;;;;11.58;100.00;93961.88;10520779;28;2383;-74
2023/10/25 18:03:13;;;;;;;;;;;;;;;11.56;100.00;93999.84;10516532;28;1739;-74
2023/10/25 18:08:21;;;;;;;;;;;;;;;11.56;100.00;93994.47;10514072;28;1962;-73
2023/10/25 18:13:25;;;;;;;;;;;;;;;11.59;100.00;94006.50;10517683;28;1792;-72
2023/10/25 18:18:29;;;;;;;;;;;;;;;11.66;100.00;94022.94;10535967;28;1633;-72
2023/10/25 18:23:32;;;;;;;;;;;;;;;11.72;100.00;94010.09;10531194;28;2481;-73
2023/10/25 18:28:38;;;;;;;;;;;;;;;11.74;100.00;93973.66;10508953;28;1979;-73
2023/10/25 18:33:47;;;;;;;;;;;;;;;11.69;100.00;94014.22;10529426;28;1533;-73
2023/10/25 18:38:55;;;;;;;;;;;;;;;11.75;100.00;93996.75;10527896;28;1855;-70
2023/10/25 18:44:02;;;;;;;;;;;;;;;11.44;100.00;93966.66;10528651;28;2026;-72
2023/10/25 18:49:09;;;;;;;;;;;;;;;11.15;100.00;93968.19;10526405;28;5492;-74
2023/10/25 18:54:15;;;;;;;;;;;;;;;10.97;100.00;93961.28;10539193;27;1770;-73
2023/10/25 18:59:18;;;;;;;;;;;;;;;10.80;100.00;93984.38;10505345;28;1516;-75
2023/10/25 19:04:23;;;;;;;;;;;;;;;10.67;100.00;93984.53;10505671;28;1814;-73
2023/10/25 19:09:27;;;;;;;;;;;;;;;10.54;100.00;93987.06;10539258;28;3114;-74
2023/10/25 19:14:31;;;;;;;;;;;;;;;10.50;100.00;93958.50;10542364;28;1696;-76
2023/10/25 19:19:42;;;;;;;;;;;;;;;10.64;100.00;93943.00;10525471;28;1637;-74
2023/10/25 19:25:04;;;;;;;;;;;;;;;10.71;100.00;93951.34;10513285;28;1654;-73
2023/10/25 19:30:11;;;;;;;;;;;;;;;10.72;100.00;93963.69;10514766;28;1914;-72
2023/10/25 19:35:16;;;;;;;;;;;;;;;10.82;100.00;93981.38;10519560;28;1571;-73
2023/10/25 19:40:20;;;;;;;;;;;;;;;10.85;100.00;94010.31;10528801;27;1779;-73
2023/10/25 19:45:37;;;;;;;;;;;;;;;10.90;100.00;94014.72;10529991;28;1580;-72
2023/10/25 19:50:43;;;;;;;;;;;;;;;10.95;100.00;94019.97;10529721;28;1981;-73
2023/10/25 19:55:46;;;;;;;;;;;;;;;10.93;100.00;94030.22;10511202;28;2897;-73
2023/10/25 20:00:52;;;;;;;;;;;;;;;11.13;100.00;94061.03;10528844;28;2078;-71
2023/10/25 20:05:58;;;;;;;;;;;;;;;11.14;100.00;94055.34;10547526;27;1813;-74
2023/10/25 20:11:06;;;;;;;;;;;;;;;11.08;100.00;94043.19;10531427;28;1967;-75
2023/10/25 20:16:16;;;;;;;;;;;;;;;11.01;100.00;94018.69;10542424;27;1552;-73
2023/10/25 20:21:31;;;;;;;;;;;;;;;10.92;100.00;94039.41;10523352;28;1803;-76
2023/10/25 20:26:37;;;;;;;;;;;;;;;10.85;100.00;94037.19;10540863;28;1420;-72
2023/10/25 20:31:41;;;;;;;;;;;;;;;10.93;100.00;94028.31;10531580;28;1906;-73
2023/10/25 20:37:00;;;;;;;;;;;;;;;11.29;100.00;94032.53;10501113;28;2597;-77
2023/10/25 20:42:03;;;;;;;;;;;;;;;11.49;100.00;94036.44;10504695;28;2982;-77
2023/10/25 20:47:07;;;;;;;;;;;;;;;11.64;100.00;94073.59;10518866;28;2677;-78
2023/10/25 20:52:18;;;;;;;;;;;;;;;11.68;100.00;94076.44;10515018;28;2797;-82
2023/10/25 20:57:26;;;;;;;;;;;;;;;11.69;100.00;94083.41;10523572;28;2504;-84
2023/10/25 21:02:29;;;;;;;;;;;;;;;11.50;100.00;94060.34;10498751;28;2617;-80
2023/10/25 21:07:37;;;;;;;;;;;;;;;11.43;100.00;94088.84;10503099;28;2660;-80
2023/10/25 21:12:46;;;;;;;;;;;;;;;11.50;100.00;94097.22;10488583;28;2790;-79
2023/10/25 21:17:53;;;;;;;;;;;;;;;11.40;100.00;94102.94;10522696;28;2726;-75
2023/10/25 21:22:59;;;;;;;;;;;;;;;11.44;100.00;94103.88;10511969;28;2943;-75
2023/10/25 21:28:02;;;;;;;;;;;;;;;11.38;100.00;94104.03;10526756;28;2633;-76
2023/10/25 21:33:06;;;;;;;;;;;;;;;11.40;100.00;94106.44;10490747;28;2621;-79
2023/10/25 21:38:10;;;;;;;;;;;;;;;11.21;100.00;94117.53;10516243;28;2544;-76
2023/10/25 21:43:13;;;;;;;;;;;;;;;11.07;100.00;94138.41;10510634;28;2796;-76
2023/10/25 21:48:18;;;;;;;;;;;;;;;10.99;100.00;94126.53;10503730;28;5135;-76
2023/10/25 21:53:24;;;;;;;;;;;;;;;10.78;100.00;94141.69;10516175;28;2474;-76
2023/10/25 21:58:33;;;;;;;;;;;;;;;10.73;100.00;94129.19;10507991;28;2582;-76
2023/10/25 22:03:57;;;;;;;;;;;;;;;10.63;100.00;94134.88;10520927;28;2710;-77
2023/10/25 22:09:00;;;;;;;;;;;;;;;10.66;100.00;94139.63;10506702;28;2957;-77
2023/10/25 22:14:12;;;;;;;;;;;;;;;10.70;100.00;94108.34;10491493;28;2730;-76
2023/10/25 22:19:17;;;;;;;;;;;;;;;10.74;100.00;94101.19;10498366;28;2546;-77
2023/10/25 22:24:24;;;;;;;;;;;;;;;10.78;100.00;94109.44;10509653;28;2609;-75
2023/10/25 22:29:28;;;;;;;;;;;;;;;10.69;100.00;94109.44;10491264;28;2623;-74
2023/10/25 22:34:31;;;;;;;;;;;;;;;10.56;100.00;94113.06;10519564;28;2596;-76
2023/10/25 22:39:36;;;;;;;;;;;;;;;10.55;100.00;94098.03;10515074;28;2569;-76
2023/10/25 22:44:41;;;;;;;;;;;;;;;10.45;100.00;94101.03;10519254;28;2589;-76
2023/10/25 22:49:50;;;;;;;;;;;;;;;10.57;100.00;94101.19;10534223;28;5381;-75
2023/10/25 22:54:57;;;;;;;;;;;;;;;10.44;100.00;94116.34;10516127;28;2869;-74
2023/10/25 23:00:02;;;;;;;;;;;;;;;10.52;100.00;94118.25;10523552;28;2818;-75
2023/10/25 23:05:06;;;;;;;;;;;;;;;10.52;100.00;94106.72;10510790;28;2781;-75
2023/10/25 23:10:15;;;;;;;;;;;;;;;10.48;100.00;94111.91;10525200;28;2618;-75
2023/10/25 23:15:19;;;;;;;;;;;;;;;10.52;100.00;94112.88;10532114;28;2682;-75
2023/10/25 23:20:23;;;;;;;;;;;;;;;10.63;100.00;94097.25;10511919;28;2872;-74
2023/10/25 23:25:31;;;;;;;;;;;;;;;10.89;100.00;94083.06;10515582;28;2545;-75
2023/10/25 23:30:42;;;;;;;;;;;;;;;10.99;100.00;94061.22;10510249;28;2600;-76
2023/10/25 23:35:53;;;;;;;;;;;;;;;10.99;100.00;94055.84;10514906;28;2722;-75
2023/10/25 23:41:03;;;;;;;;;;;;;;;10.96;100.00;94068.03;10513260;28;2612;-76
2023/10/25 23:46:06;;;;;;;;;;;;;;;10.98;100.00;94059.63;10492862;28;2701;-75
2023/10/25 23:51:14;;;;;;;;;;;;;;;10.95;100.00;94061.06;10524591;28;5602;-75
2023/10/25 23:56:20;;;;;;;;;;;;;;;10.99;100.00;94058.53;10477189;28;2588;-75
